createdAt,value
2018-09-01T00:01:26.455Z,95.60
2018-09-01T00:03:55.200Z,95.60
2018-09-01T00:06:23.651Z,95.50
2018-09-01T00:08:52.069Z,95.70
2018-09-01T00:11:20.543Z,95.40
2018-09-01T00:13:49.125Z,95.60
2018-09-01T00:16:17.504Z,95.70
2018-09-01T00:18:45.925Z,95.70
2018-09-01T00:21:14.307Z,95.70
2018-09-01T00:23:42.696Z,95.60
2018-09-01T00:26:11.097Z,95.60
2018-09-01T00:28:39.453Z,95.60
2018-09-01T00:31:07.879Z,95.50
2018-09-01T00:33:36.276Z,95.60
2018-09-01T00:36:04.806Z,95.70
2018-09-01T00:38:38.555Z,95.60
2018-09-01T00:41:07.195Z,95.30
2018-09-01T00:43:35.713Z,95.20
2018-09-01T00:46:04.160Z,95.00
2018-09-01T00:48:32.573Z,95.00
2018-09-01T00:51:01.002Z,94.80
2018-09-01T00:53:29.665Z,94.70
2018-09-01T00:55:57.990Z,94.80
2018-09-01T00:58:26.388Z,94.80
2018-09-01T01:00:54.697Z,94.70
2018-09-01T01:03:23.402Z,94.80
2018-09-01T01:05:51.825Z,94.90
2018-09-01T01:08:20.283Z,95.00
2018-09-01T01:10:49.071Z,95.10
2018-09-01T01:13:17.473Z,95.10
2018-09-01T01:15:45.903Z,95.00
2018-09-01T01:18:14.369Z,95.00
2018-09-01T01:20:42.756Z,95.00
2018-09-01T01:23:11.160Z,95.00
2018-09-01T01:25:39.950Z,95.00
2018-09-01T01:28:08.367Z,95.00
2018-09-01T01:30:36.821Z,95.00
2018-09-01T01:33:05.257Z,95.20
2018-09-01T01:35:33.645Z,95.40
2018-09-01T01:38:02.575Z,95.50
2018-09-01T01:40:31.043Z,95.40
2018-09-01T01:42:59.444Z,95.80
2018-09-01T01:45:29.182Z,95.80
2018-09-01T01:47:58.227Z,95.80
2018-09-01T01:50:26.617Z,95.70
2018-09-01T01:52:55.018Z,95.60
2018-09-01T01:55:23.496Z,95.60
2018-09-01T01:57:52.441Z,95.70
2018-09-01T02:00:20.874Z,95.70
2018-09-01T02:02:49.651Z,95.80
2018-09-01T02:05:19.903Z,95.80
2018-09-01T02:07:50.593Z,95.80
2018-09-01T02:10:19.883Z,95.80
2018-09-01T02:12:48.536Z,95.80
2018-09-01T02:15:17.290Z,96.00
2018-09-01T02:17:45.700Z,96.00
2018-09-01T02:20:14.493Z,96.00
2018-09-01T02:22:42.910Z,96.20
2018-09-01T02:25:11.299Z,96.20
2018-09-01T02:27:39.721Z,96.30
2018-09-01T02:30:08.104Z,96.30
2018-09-01T02:34:10.843Z,96.40
2018-09-01T02:36:39.809Z,96.30
2018-09-01T02:39:08.985Z,96.50
2018-09-01T02:41:38.464Z,96.50
2018-09-01T02:44:07.614Z,96.50
2018-09-01T02:46:36.627Z,96.70
2018-09-01T02:49:05.774Z,96.60
2018-09-01T02:51:34.850Z,96.70
2018-09-01T02:54:03.873Z,96.60
2018-09-01T02:56:33.491Z,96.60
2018-09-01T02:59:02.741Z,97.00
2018-09-01T03:01:36.543Z,96.80
2018-09-01T03:04:06.619Z,96.90
2018-09-01T03:06:49.791Z,97.00
2018-09-01T03:09:19.282Z,96.80
2018-09-01T03:11:48.583Z,97.00
2018-09-01T03:14:17.569Z,97.10
2018-09-01T03:16:46.715Z,97.10
2018-09-01T03:19:15.723Z,97.10
2018-09-01T03:21:44.756Z,97.10
2018-09-01T03:24:13.972Z,97.20
2018-09-01T03:26:43.184Z,97.10
2018-09-01T03:29:12.894Z,97.10
2018-09-01T03:31:42.073Z,97.40
2018-09-01T03:34:10.860Z,97.50
2018-09-01T03:36:39.303Z,97.70
2018-09-01T03:39:08.769Z,97.60
2018-09-01T03:41:37.905Z,97.50
2018-09-01T03:44:06.346Z,97.40
2018-09-01T03:46:34.796Z,97.30
2018-09-01T03:49:04.849Z,97.30
2018-09-01T03:51:33.164Z,97.30
2018-09-01T03:54:01.870Z,97.40
2018-09-01T03:56:30.314Z,97.30
2018-09-01T03:58:58.733Z,97.30
2018-09-01T04:01:27.161Z,97.30
2018-09-01T04:03:55.789Z,97.30
2018-09-01T04:06:24.166Z,97.40
2018-09-01T04:08:52.541Z,97.40
2018-09-01T04:11:21.002Z,97.40
2018-09-01T04:13:49.395Z,97.40
2018-09-01T04:16:17.745Z,97.30
2018-09-01T04:18:47.748Z,97.40
2018-09-01T04:21:16.944Z,97.40
2018-09-01T04:23:45.419Z,97.30
2018-09-01T04:26:14.160Z,97.30
2018-09-01T04:28:42.915Z,97.50
2018-09-01T04:31:11.681Z,97.50
2018-09-01T04:33:40.359Z,97.40
2018-09-01T04:36:08.860Z,97.50
2018-09-01T04:38:37.647Z,97.50
2018-09-01T04:41:06.431Z,97.30
2018-09-01T04:43:35.062Z,97.30
2018-09-01T04:46:03.434Z,97.30
2018-09-01T04:48:31.967Z,97.30
2018-09-01T04:51:00.726Z,97.40
2018-09-01T04:53:29.179Z,97.40
2018-09-01T04:55:58.281Z,97.50
2018-09-01T04:58:26.997Z,97.40
2018-09-01T05:00:55.409Z,97.30
2018-09-01T05:03:23.776Z,97.40
2018-09-01T05:05:52.144Z,97.30
2018-09-01T05:08:20.531Z,97.40
2018-09-01T05:10:49.219Z,97.50
2018-09-01T05:13:17.644Z,97.40
2018-09-01T05:15:46.081Z,97.30
2018-09-01T05:18:14.485Z,97.30
2018-09-01T05:20:42.940Z,97.40
2018-09-01T05:23:11.326Z,97.40
2018-09-01T05:25:40.060Z,97.50
2018-09-01T05:28:08.441Z,97.40
2018-09-01T05:30:36.853Z,97.50
2018-09-01T05:33:05.514Z,97.40
2018-09-01T05:35:33.832Z,97.60
2018-09-01T05:38:02.183Z,97.60
2018-09-01T05:40:30.594Z,97.60
2018-09-01T05:42:58.988Z,97.60
2018-09-01T05:45:27.608Z,97.90
2018-09-01T05:47:56.678Z,97.60
2018-09-01T05:50:25.087Z,97.50
2018-09-01T05:52:53.562Z,97.60
2018-09-01T05:55:22.513Z,97.60
2018-09-01T05:57:50.909Z,97.50
2018-09-01T06:00:21.180Z,97.60
2018-09-01T06:02:50.672Z,97.40
2018-09-01T06:05:19.388Z,97.30
2018-09-01T06:07:47.878Z,97.20
2018-09-01T06:10:16.944Z,97.20
2018-09-01T06:12:45.622Z,97.20
2018-09-01T06:15:14.029Z,97.20
2018-09-01T06:17:42.499Z,97.00
2018-09-01T06:20:10.840Z,97.00
2018-09-01T06:22:39.375Z,96.90
2018-09-01T06:25:08.035Z,96.80
2018-09-01T06:27:38.930Z,96.70
2018-09-01T06:30:09.899Z,96.40
2018-09-01T06:32:38.634Z,96.50
2018-09-01T06:35:07.000Z,96.20
2018-09-01T06:37:35.468Z,96.20
2018-09-01T06:40:03.820Z,95.90
2018-09-01T06:42:32.249Z,95.70
2018-09-01T06:45:00.585Z,95.50
2018-09-01T06:47:29.183Z,94.70
2018-09-01T06:49:57.549Z,94.40
2018-09-01T06:52:29.243Z,93.60
2018-09-01T06:54:57.699Z,93.60
2018-09-01T06:57:26.204Z,93.20
2018-09-01T06:59:54.618Z,93.10
2018-09-01T07:02:23.014Z,92.60
2018-09-01T07:04:51.483Z,92.80
2018-09-01T07:07:20.036Z,92.00
2018-09-01T07:09:49.173Z,91.80
2018-09-01T07:12:17.841Z,91.60
2018-09-01T07:14:46.241Z,91.70
2018-09-01T07:17:14.637Z,91.50
2018-09-01T07:19:43.058Z,91.40
2018-09-01T07:22:11.490Z,91.20
2018-09-01T07:24:39.850Z,90.70
2018-09-01T07:27:08.332Z,90.50
2018-09-01T07:29:37.142Z,90.10
2018-09-01T07:32:05.737Z,90.30
2018-09-01T07:34:34.887Z,89.80
2018-09-01T07:37:04.668Z,90.30
2018-09-01T07:39:33.489Z,90.20
2018-09-01T07:42:01.977Z,90.00
2018-09-01T07:44:30.515Z,88.80
2018-09-01T07:46:59.290Z,88.30
2018-09-01T07:49:27.845Z,87.80
2018-09-01T07:51:56.324Z,89.10
2018-09-01T07:54:24.719Z,88.70
2018-09-01T07:56:53.080Z,87.90
2018-09-01T07:59:21.632Z,88.60
2018-09-01T08:01:50.056Z,88.70
2018-09-01T08:04:18.576Z,88.00
2018-09-01T08:06:46.978Z,87.00
2018-09-01T08:09:15.438Z,87.20
2018-09-01T08:11:43.890Z,86.90
2018-09-01T08:14:12.616Z,85.00
2018-09-01T08:16:41.061Z,85.40
2018-09-01T08:19:09.597Z,84.70
2018-09-01T08:21:38.174Z,86.20
2018-09-01T08:24:06.838Z,86.20
2018-09-01T08:26:35.387Z,84.80
2018-09-01T08:29:04.182Z,84.10
2018-09-01T08:31:32.895Z,84.10
2018-09-01T08:34:01.358Z,82.40
2018-09-01T08:36:30.129Z,81.50
2018-09-01T08:38:58.837Z,80.40
2018-09-01T08:41:27.208Z,79.80
2018-09-01T08:43:55.588Z,76.70
2018-09-01T08:46:24.652Z,77.10
2018-09-01T08:48:53.071Z,75.90
2018-09-01T08:51:21.470Z,74.10
2018-09-01T08:53:49.929Z,73.20
2018-09-01T08:56:18.373Z,71.20
2018-09-01T08:58:46.820Z,69.40
2018-09-01T09:01:15.302Z,70.30
2018-09-01T09:03:43.769Z,70.80
2018-09-01T09:06:12.204Z,68.80
2018-09-01T09:08:40.658Z,68.80
2018-09-01T09:11:09.561Z,69.00
2018-09-01T09:13:37.972Z,70.70
2018-09-01T09:16:06.593Z,71.50
2018-09-01T09:18:35.076Z,69.20
2018-09-01T09:21:03.480Z,68.50
2018-09-01T09:23:31.870Z,67.40
2018-09-01T09:26:00.304Z,65.50
2018-09-01T09:28:28.754Z,67.60
2018-09-01T09:30:57.241Z,68.10
2018-09-01T09:33:25.646Z,67.00
2018-09-01T09:35:54.098Z,65.50
2018-09-01T09:38:22.975Z,62.60
2018-09-01T09:40:51.472Z,65.10
2018-09-01T09:43:20.286Z,66.50
2018-09-01T09:45:48.816Z,67.00
2018-09-01T09:48:17.488Z,67.70
2018-09-01T09:50:45.958Z,66.10
2018-09-01T09:53:14.661Z,66.20
2018-09-01T09:55:43.513Z,66.00
2018-09-01T09:58:12.001Z,65.80
2018-09-01T10:00:46.060Z,64.90
2018-09-01T10:03:14.486Z,65.10
2018-09-01T10:05:43.012Z,63.10
2018-09-01T10:08:11.471Z,67.50
2018-09-01T10:10:39.935Z,67.70
2018-09-01T10:13:23.110Z,66.20
2018-09-01T10:15:51.519Z,65.40
2018-09-01T10:18:20.178Z,66.70
2018-09-01T10:20:48.942Z,67.50
2018-09-01T10:23:17.338Z,67.80
2018-09-01T10:25:45.730Z,66.60
2018-09-01T10:28:14.177Z,66.80
2018-09-01T10:30:43.001Z,66.90
2018-09-01T10:33:11.461Z,67.70
2018-09-01T10:35:39.998Z,66.20
2018-09-01T10:38:08.699Z,67.30
2018-09-01T10:40:37.074Z,67.20
2018-09-01T10:43:05.455Z,67.80
2018-09-01T10:45:33.836Z,69.30
2018-09-01T10:48:02.308Z,67.40
2018-09-01T10:50:30.685Z,66.20
2018-09-01T10:53:00.844Z,67.90
2018-09-01T10:55:29.298Z,65.80
2018-09-01T10:57:57.778Z,68.30
2018-09-01T11:00:26.216Z,68.70
2018-09-01T11:02:54.709Z,70.10
2018-09-01T11:05:23.190Z,67.00
2018-09-01T11:07:51.617Z,66.90
2018-09-01T11:10:20.018Z,67.60
2018-09-01T11:12:48.420Z,68.40
2018-09-01T11:15:17.207Z,70.50
2018-09-01T11:17:45.652Z,68.30
2018-09-01T11:20:14.448Z,70.30
2018-09-01T11:22:42.798Z,70.30
2018-09-01T11:25:11.572Z,69.00
2018-09-01T11:27:40.079Z,68.30
2018-09-01T11:30:09.793Z,66.40
2018-09-01T11:32:38.282Z,66.20
2018-09-01T11:35:08.680Z,64.60
2018-09-01T11:37:37.982Z,63.30
2018-09-01T11:40:06.728Z,63.90
2018-09-01T11:42:35.121Z,61.10
2018-09-01T11:45:03.655Z,60.70
2018-09-01T11:47:32.338Z,58.60
2018-09-01T11:50:00.953Z,58.20
2018-09-01T11:52:29.373Z,57.20
2018-09-01T11:54:57.866Z,58.60
2018-09-01T11:57:27.066Z,57.10
2018-09-01T11:59:55.567Z,57.60
2018-09-01T12:02:24.302Z,58.60
2018-09-01T12:04:53.016Z,60.00
2018-09-01T12:07:21.751Z,62.00
2018-09-01T12:09:50.136Z,59.60
2018-09-01T12:12:18.741Z,59.60
2018-09-01T12:14:47.563Z,58.10
2018-09-01T12:17:15.996Z,56.90
2018-09-01T12:19:44.520Z,58.70
2018-09-01T12:22:13.274Z,58.40
2018-09-01T12:24:41.646Z,59.60
2018-09-01T12:27:10.384Z,58.30
2018-09-01T12:29:38.850Z,58.60
2018-09-01T12:32:07.364Z,57.70
2018-09-01T12:34:35.882Z,61.30
2018-09-01T12:37:04.349Z,57.90
2018-09-01T12:39:32.745Z,58.80
2018-09-01T12:42:01.248Z,59.80
2018-09-01T12:44:29.670Z,57.80
2018-09-01T12:46:58.112Z,58.20
2018-09-01T12:49:27.118Z,60.00
2018-09-01T12:51:55.540Z,61.20
2018-09-01T12:54:23.969Z,61.00
2018-09-01T12:56:52.352Z,61.50
2018-09-01T12:59:20.805Z,57.70
2018-09-01T13:01:49.203Z,56.60
2018-09-01T13:04:17.624Z,56.10
2018-09-01T13:06:46.406Z,54.80
2018-09-01T13:09:14.802Z,53.40
2018-09-01T13:11:43.206Z,55.00
2018-09-01T13:14:11.573Z,54.30
2018-09-01T13:16:39.959Z,53.40
2018-09-01T13:19:08.308Z,51.90
2018-09-01T13:21:36.745Z,52.70
2018-09-01T13:24:05.185Z,51.30
2018-09-01T13:26:33.578Z,52.00
2018-09-01T13:29:02.021Z,51.70
2018-09-01T13:31:30.614Z,55.30
2018-09-01T13:33:59.319Z,51.50
2018-09-01T13:36:28.055Z,52.10
2018-09-01T13:38:56.501Z,51.80
2018-09-01T13:41:24.881Z,51.20
2018-09-01T13:43:53.316Z,50.00
2018-09-01T13:46:21.802Z,48.30
2018-09-01T13:48:50.155Z,46.20
2018-09-01T13:51:18.529Z,47.40
2018-09-01T13:53:47.051Z,48.00
2018-09-01T13:56:15.437Z,49.00
2018-09-01T13:58:43.858Z,46.70
2018-09-01T14:01:12.284Z,49.70
2018-09-01T14:03:40.720Z,50.30
2018-09-01T14:06:09.204Z,50.30
2018-09-01T14:08:37.597Z,49.70
2018-09-01T14:11:06.653Z,46.90
2018-09-01T14:13:34.967Z,49.10
2018-09-01T14:16:03.437Z,50.00
2018-09-01T14:18:31.840Z,52.20
2018-09-01T14:21:00.339Z,52.40
2018-09-01T14:23:28.724Z,53.70
2018-09-01T14:25:57.458Z,54.80
2018-09-01T14:28:25.932Z,54.90
2018-09-01T14:30:54.401Z,56.50
2018-09-01T14:34:52.244Z,54.70
2018-09-01T14:37:20.737Z,55.00
2018-09-01T14:42:14.301Z,58.00
2018-09-01T14:44:42.789Z,55.90
2018-09-01T14:47:11.213Z,56.70
2018-09-01T14:49:39.643Z,57.20
2018-09-01T14:52:08.016Z,58.20
2018-09-01T14:54:36.434Z,60.00
2018-09-01T14:57:05.042Z,60.70
2018-09-01T14:59:33.477Z,58.90
2018-09-01T15:02:02.056Z,59.50
2018-09-01T15:04:30.484Z,58.80
2018-09-01T15:06:58.985Z,59.40
2018-09-01T15:09:27.493Z,60.50
2018-09-01T15:11:55.824Z,60.60
2018-09-01T15:14:24.346Z,62.20
2018-09-01T15:16:52.875Z,63.30
2018-09-01T15:19:21.395Z,59.90
2018-09-01T15:21:49.872Z,60.90
2018-09-01T15:24:18.412Z,58.80
2018-09-01T15:26:46.784Z,59.80
2018-09-01T15:29:15.611Z,59.40
2018-09-01T15:31:44.010Z,57.40
2018-09-01T15:34:12.459Z,56.80
2018-09-01T15:36:40.916Z,56.50
2018-09-01T15:39:09.321Z,56.70
2018-09-01T15:41:38.799Z,56.90
2018-09-01T15:44:07.605Z,57.50
2018-09-01T15:46:37.743Z,58.30
2018-09-01T15:49:06.858Z,59.30
2018-09-01T15:51:35.654Z,58.20
2018-09-01T15:54:04.224Z,58.70
2018-09-01T15:56:32.756Z,58.70
2018-09-01T15:59:01.234Z,58.60
2018-09-01T16:01:29.755Z,59.00
2018-09-01T16:03:58.505Z,58.00
2018-09-01T16:06:26.908Z,58.00
2018-09-01T16:08:55.257Z,58.90
2018-09-01T16:11:23.630Z,58.50
2018-09-01T16:13:52.081Z,58.10
2018-09-01T16:16:20.730Z,58.40
2018-09-01T16:18:49.088Z,57.80
2018-09-01T16:21:17.461Z,58.20
2018-09-01T16:23:45.988Z,58.60
2018-09-01T16:26:14.954Z,58.30
2018-09-01T16:28:44.039Z,57.40
2018-09-01T16:31:12.787Z,58.40
2018-09-01T16:33:41.179Z,57.60
2018-09-01T16:36:09.550Z,58.60
2018-09-01T16:38:38.210Z,59.50
2018-09-01T16:41:06.593Z,61.20
2018-09-01T16:43:35.050Z,60.20
2018-09-01T16:46:03.514Z,58.70
2018-09-01T16:48:31.890Z,58.40
2018-09-01T16:51:00.264Z,59.10
2018-09-01T16:53:28.768Z,59.00
2018-09-01T16:55:57.219Z,58.50
2018-09-01T16:58:25.625Z,58.90
2018-09-01T17:00:54.094Z,57.50
2018-09-01T17:03:22.437Z,58.70
2018-09-01T17:05:50.879Z,59.80
2018-09-01T17:08:19.271Z,59.20
2018-09-01T17:10:47.717Z,59.60
2018-09-01T17:13:16.131Z,60.10
2018-09-01T17:15:44.622Z,60.50
2018-09-01T17:18:13.182Z,61.10
2018-09-01T17:20:42.192Z,61.70
2018-09-01T17:23:10.598Z,62.00
2018-09-01T17:25:39.348Z,61.50
2018-09-01T17:28:07.969Z,62.50
2018-09-01T17:30:36.250Z,63.40
2018-09-01T17:33:04.729Z,65.60
2018-09-01T17:35:33.386Z,66.10
2018-09-01T17:38:01.927Z,65.90
2018-09-01T17:40:30.348Z,67.00
2018-09-01T17:42:58.798Z,67.50
2018-09-01T17:45:27.329Z,67.80
2018-09-01T17:47:56.107Z,67.80
2018-09-01T17:50:24.607Z,68.00
2018-09-01T17:52:53.236Z,68.30
2018-09-01T17:55:21.728Z,68.20
2018-09-01T17:57:50.288Z,68.30
2018-09-01T18:00:18.979Z,69.00
2018-09-01T18:02:47.451Z,69.30
2018-09-01T18:05:15.869Z,69.40
2018-09-01T18:07:44.339Z,69.90
2018-09-01T18:10:13.101Z,70.00
2018-09-01T18:12:42.189Z,70.30
2018-09-01T18:15:10.731Z,70.20
2018-09-01T18:17:39.240Z,70.70
2018-09-01T18:20:07.660Z,70.30
2018-09-01T18:22:36.198Z,70.70
2018-09-01T18:25:04.723Z,70.80
2018-09-01T18:27:33.132Z,70.90
2018-09-01T18:30:01.571Z,71.20
2018-09-01T18:32:29.954Z,71.50
2018-09-01T18:34:58.861Z,71.90
2018-09-01T18:37:27.290Z,71.90
2018-09-01T18:39:55.803Z,71.80
2018-09-01T18:42:24.313Z,71.80
2018-09-01T18:44:52.998Z,72.10
2018-09-01T18:47:21.472Z,72.30
2018-09-01T18:49:49.985Z,72.20
2018-09-01T18:52:18.395Z,72.50
2018-09-01T18:54:46.884Z,73.00
2018-09-01T18:57:16.072Z,73.30
2018-09-01T18:59:44.494Z,73.30
2018-09-01T19:02:12.862Z,73.30
2018-09-01T19:04:41.306Z,73.40
2018-09-01T19:07:09.769Z,73.30
2018-09-01T19:09:38.237Z,73.50
2018-09-01T19:12:07.465Z,74.30
2018-09-01T19:14:35.866Z,75.10
2018-09-01T19:17:04.426Z,74.90
2018-09-01T19:19:33.400Z,75.00
2018-09-01T19:22:02.199Z,75.50
2018-09-01T19:24:30.658Z,74.90
2018-09-01T19:26:59.115Z,76.00
2018-09-01T19:29:27.485Z,76.00
2018-09-01T19:31:56.530Z,76.30
2018-09-01T19:34:24.880Z,76.90
2018-09-01T19:36:53.435Z,77.30
2018-09-01T19:39:21.818Z,77.30
2018-09-01T19:41:50.347Z,77.40
2018-09-01T19:44:19.114Z,77.20
2018-09-01T19:46:47.533Z,77.90
2018-09-01T19:49:15.983Z,78.50
2018-09-01T19:51:44.657Z,78.50
2018-09-01T19:54:13.055Z,78.70
2018-09-01T19:56:41.449Z,79.80
2018-09-01T19:59:09.839Z,79.90
2018-09-01T20:01:38.464Z,80.10
2018-09-01T20:04:08.632Z,80.50
2018-09-01T20:06:38.129Z,80.50
2018-09-01T20:09:07.056Z,80.80
2018-09-01T20:11:36.079Z,81.50
2018-09-01T20:14:04.696Z,80.90
2018-09-01T20:16:33.163Z,80.80
2018-09-01T20:19:01.692Z,80.60
2018-09-01T20:21:30.129Z,81.00
2018-09-01T20:23:58.607Z,80.70
2018-09-01T20:26:27.029Z,80.90
2018-09-01T20:28:55.628Z,80.90
2018-09-01T20:31:24.102Z,80.90
2018-09-01T20:33:52.519Z,81.50
2018-09-01T20:36:22.279Z,81.60
2018-09-01T20:38:50.819Z,82.00
2018-09-01T20:41:20.362Z,81.70
2018-09-01T20:43:48.777Z,81.60
2018-09-01T20:46:17.190Z,82.20
2018-09-01T20:48:45.608Z,82.60
2018-09-01T20:51:14.014Z,82.60
2018-09-01T20:53:42.378Z,82.60
2018-09-01T20:56:10.784Z,82.90
2018-09-01T20:58:39.190Z,83.20
2018-09-01T21:01:07.685Z,83.40
2018-09-01T21:03:36.289Z,83.70
2018-09-01T21:06:05.276Z,83.60
2018-09-01T21:08:34.103Z,83.90
2018-09-01T21:11:02.572Z,83.90
2018-09-01T21:13:30.950Z,84.20
2018-09-01T21:16:00.076Z,83.90
2018-09-01T21:18:28.516Z,83.90
2018-09-01T21:20:57.005Z,83.70
2018-09-01T21:23:25.395Z,84.40
2018-09-01T21:25:53.819Z,84.00
2018-09-01T21:28:22.247Z,84.50
2018-09-01T21:30:50.988Z,85.00
2018-09-01T21:33:19.394Z,85.00
2018-09-01T21:35:48.094Z,84.90
2018-09-01T21:38:16.468Z,84.40
2018-09-01T21:40:44.998Z,84.50
2018-09-01T21:43:13.499Z,84.90
2018-09-01T21:45:41.960Z,85.00
2018-09-01T21:48:10.391Z,85.40
2018-09-01T21:50:38.902Z,85.50
2018-09-01T21:53:07.752Z,85.00
2018-09-01T21:55:36.973Z,85.80
2018-09-01T21:58:05.758Z,85.80
2018-09-01T22:00:34.477Z,85.60
2018-09-01T22:03:02.997Z,85.60
2018-09-01T22:05:31.505Z,85.90
2018-09-01T22:07:59.949Z,86.10
2018-09-01T22:10:28.403Z,86.20
2018-09-01T22:12:56.870Z,85.90
2018-09-01T22:15:25.391Z,86.10
2018-09-01T22:17:53.800Z,86.70
2018-09-01T22:20:22.537Z,87.20
2018-09-01T22:22:50.970Z,87.70
2018-09-01T22:25:19.454Z,88.60
2018-09-01T22:27:47.973Z,87.70
2018-09-01T22:30:16.779Z,88.10
2018-09-01T22:32:45.188Z,88.50
2018-09-01T22:35:13.645Z,88.30
2018-09-01T22:37:42.015Z,88.90
2018-09-01T22:40:10.799Z,88.60
2018-09-01T22:42:39.616Z,88.10
2018-09-01T22:45:08.644Z,88.70
2018-09-01T22:47:37.981Z,88.60
2018-09-01T22:50:06.465Z,89.30
2018-09-01T22:52:35.588Z,89.40
2018-09-01T22:55:04.029Z,89.50
2018-09-01T22:57:32.787Z,89.10
2018-09-01T23:00:01.417Z,89.10
2018-09-01T23:02:29.786Z,88.90
2018-09-01T23:04:58.403Z,89.10
2018-09-01T23:07:26.740Z,89.10
2018-09-01T23:09:55.178Z,89.20
2018-09-01T23:12:23.683Z,89.00
2018-09-01T23:14:52.479Z,89.50
2018-09-01T23:17:20.881Z,90.10
2018-09-01T23:19:49.356Z,89.70
2018-09-01T23:22:18.374Z,89.60
2018-09-01T23:24:47.100Z,89.60
2018-09-01T23:27:15.498Z,90.00
2018-09-01T23:29:43.937Z,90.10
2018-09-01T23:32:12.692Z,90.10
2018-09-01T23:34:41.027Z,89.90
2018-09-01T23:37:09.734Z,90.50
2018-09-01T23:39:38.174Z,90.60
2018-09-01T23:42:06.590Z,90.60
2018-09-01T23:44:35.025Z,90.70
2018-09-01T23:47:05.116Z,90.80
2018-09-01T23:49:33.643Z,90.90
2018-09-01T23:52:01.974Z,91.00
2018-09-01T23:54:30.332Z,91.10
2018-09-01T23:56:58.792Z,91.00
2018-09-01T23:59:27.448Z,91.20
